• Join FlightAware (Why Join?)
  • Login
  • US Flag 
11:09PM EDT


 

Airport Tracker/Info


-or-


 

Live Flight TrackerFlight Track Log ✈ AWE1705 ✈ 04.10.2013 ✈ KPHL - KRDU

Flight Track Log - Related Links

Times and Time Zones

All times are in EDT time to prevent confusion due to time zone crossing. See the AWE1705 flight status page for this flight to view local times or setup timezone preferences in your user account.

Time Position Orientation Groundspeed Altitude Reporting Facility
EDT Latitude Longitude Course Direction KTS MPH feet Rate Location/Type
10:01AM 39.8667 -75.2000 142° Southeast 173 199 1,300  Level Philadelphia TRACON
10:03AM 39.8022 -75.1189 136° Southeast 200 230 5,300 2,280 Climbing Washington Center
10:04AM 39.5742 -75.5228 180° South  Level Estimated
10:04AM 39.7483 -75.1839 223° Southwest 202 232 8,000  Level Washington Center
10:05AM 39.4996 -75.5929 180° South  Level Estimated
10:05AM 39.6858 -75.2492 219° Southwest 254 292 10,900  Level Washington Center
10:06AM 39.4250 -75.6628 189° South  Level Estimated
10:06AM 39.6069 -75.3086 210° Southwest 298 343 13,000  Level Washington Center
10:07AM 39.5069 -75.3281 189° South 335 386 15,700 1,440 Climbing Washington Center
10:08AM 39.4069 -75.3472 188° South 355 409 16,000 600 Climbing Washington Center
10:09AM 39.3050 -75.3636 187° South 372 428 16,900 420 Climbing Washington Center
10:10AM 39.2028 -75.3828 188° South 372 428 16,900  Level Washington Center
10:11AM 39.1008 -75.3989 187° South 372 428 16,900 720 Level Washington Center
10:12AM 38.9944 -75.4128 186° South 372 428 18,400 1,740 Climbing Washington Center
10:13AM 38.8881 -75.4317 188° South 378 435 20,400 1,800 Climbing Washington Center
10:14AM 38.7756 -75.4453 185° South 397 457 22,100 1,740 Climbing Washington Center
10:15AM 38.6608 -75.4642 187° South 409 471 23,900 1,680 Climbing Washington Center
10:16AM 38.5422 -75.4803 186° South 426 490 25,500 1,020 Climbing Washington Center
10:17AM 38.4211 -75.5017 188° South 433 498 26,000 240 Climbing Washington Center
10:18AM 38.3003 -75.5361 193° South 439 505 26,000  Level Washington Center
10:19AM 38.1794 -75.6128 207° Southwest 449 517 26,000  Level Washington Center
10:20AM 38.0708 -75.6789 206° Southwest 439 505 26,000  Level Washington Center
10:21AM 37.9667 -75.7472 207° Southwest 434 499 26,000  Level Washington Center
10:22AM 37.8664 -75.8286 213° Southwest 434 499 26,000  Level Washington Center
10:23AM 37.7786 -75.9281 222° Southwest 429 494 26,000  Level Washington Center
10:24AM 37.6928 -76.0300 223° Southwest 429 494 26,000  Level Washington Center
10:25AM 37.6025 -76.1267 220° Southwest 429 494 26,000  Level Washington Center
10:26AM 37.5103 -76.2228 220° Southwest 434 499 26,000  Level Washington Center
10:27AM 37.4222 -76.3189 221° Southwest 434 499 26,000 -300 Level Washington Center
10:28AM 37.3319 -76.4172 221° Southwest 434 499 25,500 -1,020 Descending Washington Center
10:29AM 37.2478 -76.5156 223° Southwest 434 499 24,000 -780 Descending Washington Center
10:30AM 37.1758 -76.6294 232° Southwest 417 480 24,000  Level Washington Center
10:31AM 37.1039 -76.7378 230° Southwest 417 480 24,000  Level Washington Center
10:32AM 37.0319 -76.8486 231° Southwest 417 480 24,000 -540 Level Washington Center
10:33AM 36.9619 -76.9592 232° Southwest 417 480 23,000 -540 Descending Washington Center
10:34AM 36.8917 -77.0694 231° Southwest 417 480 23,000  Level Washington Center
10:35AM 36.8194 -77.1772 230° Southwest 417 480 23,000  Level Washington Center
10:36AM 36.7492 -77.2872 231° Southwest 417 480 23,000  Level Washington Center
10:37AM 36.6786 -77.3944 231° Southwest 417 480 23,000  Level Washington Center
10:38AM 36.6061 -77.5039 230° Southwest 417 480 23,000 -660 Level Washington Center
10:39AM 36.5375 -77.6108 231° Southwest 417 480 21,700 -1,740 Descending Washington Center
10:40AM 36.4689 -77.7150 231° Southwest 412 474 19,600 -1,920 Descending Washington Center
10:41AM 36.4025 -77.8192 232° Southwest 406 467 17,900 -1,980 Descending Washington Center
10:42AM 36.3381 -77.9203 232° Southwest 389 448 15,700 -2,160 Descending Washington Center
10:43AM 36.2778 -78.0061 229° Southwest 355 409 13,800 -1,980 Descending Washington Center
10:43AM 36.2733 -78.0139 235° Southwest 374 430 13,800 -1,860 Level Washington Center
10:44AM 36.2303 -78.0794 231° Southwest 347 399 12,500 -1,800 Descending Washington Center
10:44AM 36.2131 -78.1072 232° Southwest 368 423 12,000 -1,620 Descending Washington Center
10:45AM 36.1722 -78.1650 229° Southwest 330 380 10,900 -1,140 Descending Washington Center
10:45AM 36.1611 -78.1956 246° West 343 395 10,900 -360 Level Washington Center
10:45AM 36.1481 -78.2208 237° Southwest 293 337 10,700 -1,440 Descending Washington Center
10:46AM 36.1106 -78.3097 242° Southwest 288 331 9,100 -1,560 Descending Washington Center
10:47AM 36.0842 -78.3678 241° Southwest 294 338 8,000 -1,560 Descending Washington Center
10:48AM 36.0731 -78.3956 244° Southwest 286 329 7,500 -720 Descending Washington Center
10:48AM 36.0572 -78.4567 252° West 282 325 7,300 -480 Descending Washington Center
10:48AM 36.0547 -78.4747 260° West 247 284 7,100 -1,140 Descending Washington Center
10:49AM 36.0450 -78.5308 258° West 256 295 6,200 -1,080 Descending Washington Center
10:50AM 36.0419 -78.5642 264° West 213 245 5,800 -1,140 Descending Washington Center
10:50AM 36.0369 -78.5972 259° West 224 258 5,100 -1,500 Descending Washington Center
10:51AM 36.0197 -78.6197 227° Southwest 180 207 4,300 -1,500 Descending Washington Center
10:51AM 36.0067 -78.6397 231° Southwest 190 219 3,600 -1,440 Descending Washington Center
10:52AM 35.9894 -78.6622 227° Southwest 178 205 3,000 -1,140 Descending Washington Center
10:52AM 35.9722 -78.6847 227° Southwest 180 207 2,500 -900 Descending Washington Center
10:53AM 35.9572 -78.7019 223° Southwest 171 197 2,100 -780 Descending Washington Center
10:53AM 35.9356 -78.7294 226° Southwest 139 160 1,600 -720 Descending Washington Center
10:55AM 35.9011 -78.7692 223° Southwest 129 148 700 -780 Descending Washington Center